ADDS TAF Board (Experimental) INFO Settings

IDs: Format: Expanded Condensed

KATL - Atlanta/Hartsfield-J, GA, US

Issued at 2320 UTC 25 Apr 2015
Updated at: 0117 UTC 26 Apr 2015
Time0052Z 26/02Z 26/03Z 26/04Z 26/05Z 26/06Z 26/07Z 26/08Z 26/09Z 26/10Z 26/11Z 26/12Z 26/13Z 26/14Z
Type OBS PRVL PRVL PRVL PRVL PRVL PRVL PRVL PRVL PRVL PRVL PRVL PRVL PRVL
VIS 10 >6 >6 >6 >6 >6 >6 >6 >6 5 5 5 >6 >6
CIG 200 40 40 40 40 40 40 40 40 12 12 12 20 20
Cover BKN BKN BKN BKN BKN BKN BKN BKN BKN BKN BKN BKN BKN BKN
FltCat VFR VFR VFR VFR VFR VFR VFR VFR VFR MVFR MVFR MVFR MVFR MVFR
WX -- -- -- -- -- -- -- -- -- BR BR BR -- --
WDir 230 230 230 230 230 230 230 230 230 240 240 240 280 280
WSpd 5 10 10 10 10 10 10 10 10 10 10 10 12 12
WGst -- -- -- -- -- -- -- -- -- -- -- -- -- --
R08/26
XWnd -3 -6 -6 -6 -6 -6 -6 -6 -6 -5 -5 -5 2 2
HWnd -4 -8 -8 -8 -8 -8 -8 -8 -8 -9 -9 -9 -12 -12
R09/27
XWnd -3 -6 -6 -6 -6 -6 -6 -6 -6 -5 -5 -5 2 2
HWnd -4 -8 -8 -8 -8 -8 -8 -8 -8 -9 -9 -9 -12 -12
R10/28
XWnd -3 -6 -6 -6 -6 -6 -6 -6 -6 -5 -5 -5 2 2
HWnd -4 -8 -8 -8 -8 -8 -8 -8 -8 -9 -9 -9 -12 -12

NOTE: TEMPO conditions in [brackets]. Keep in mind TEMPO conditions might be better (lower impact) than prevailing conditions.

Raw TAF
KATL 252320Z 2600/2706 21010G16KT P6SM VCSH SCT035 BKN050
  TEMPO 2600/2601 VRB15G30KT 3SM TSRA BKN020CB
  FM260200 23010KT P6SM BKN040
  FM261000 24010KT 5SM BR BKN012 BKN035
  FM261300 28012KT P6SM BKN020
  FM261600 29018G28KT P6SM SCT050
  FM270000 31012KT P6SM SCT080


Raw METAR
KATL 260052Z 23005KT 10SM FEW026 SCT075 SCT110 BKN200 22/18 A2965 RMK AO2 PK WND 24029/0017 RAE00B17E32 SLP034 CB DSNT N AND E P0011 T02170183
KATL 260028Z 25006KT 8SM -RA SCT028CB BKN075 BKN110 BKN200 22/18 A2966 RMK AO2 PK WND 24029/0017 RAE00B17 CB N-E MOV E P0011
KATL 260024Z 25009G29KT 3SM RA BKN028CB BKN075 OVC110 22/17 A2966 RMK AO2 PK WND 24029/0017 RAE00B17 VIS NW-N 1 CB SE-OHD-NW MOV E CBMAM NE-E MOV E P0010
KATL 260016Z COR 22011G18KT 9SM BKN028CB BKN085 BKN110 BKN200 23/19 A2965 RMK AO2 RAE00 CB SW-W MOV E CBMAM NE-E MOV E SHRA SW-W P0000
KATL 252352Z 22006KT 10SM -RA FEW024 SCT085 SCT110CB BKN200 23/19 A2966 RMK AO2 RAB18E33B49 SLP035 OCNL LTGICCA DSNT SE-SW CBMAM E-OHD-W MOV E CB DSNT SE-SW ACC SE-OHD-NW P0000 60000 T02330189 10261 20233 55012
KATL 252252Z 27007KT 10SM FEW030TCU SCT050 SCT110 OVC200 25/19 A2964 RMK AO2 SLP031 VIRGA DSNT S-W TCU NE T02500189

METAR Board
Radar Display
Forecast Discussion

TAF Board Legend

Potential Impact
Threat None Slight Moderate High
Visibility (sm) ≥5.1 5.1>X≥3 3>X≥1 <1
Ceiling (100 ft) ≥30.1 30.1>X≥10 10>X≥5 <5
Wind Speed (kt) <10 10≤X<20 20≤X<30 ≥30
Wind Gust (kt) <15 15≤X<25 25≤X<35 ≥35
Weather No Wx Reported VCTS,-TS,-FZRA,SN TS,FZRA +TS,+FZRA,+SN